sensor_id;sensor_type;location;lat;lon;timestamp;pressure;altitude;pressure_sealevel;temperature;humidity
65832;BME280;52593;42.648;23.332;2022-12-04T00:01:45;95447.91;;;2.49;100.00
65832;BME280;52593;42.648;23.332;2022-12-04T00:04:10;95448.81;;;2.37;100.00
65832;BME280;52593;42.648;23.332;2022-12-04T00:06:36;95453.38;;;2.22;100.00
65832;BME280;52593;42.648;23.332;2022-12-04T00:09:01;95457.84;;;2.21;100.00
65832;BME280;52593;42.648;23.332;2022-12-04T00:11:29;95461.19;;;2.23;100.00
65832;BME280;52593;42.648;23.332;2022-12-04T00:13:56;95457.44;;;2.14;100.00
65832;BME280;52593;42.648;23.332;2022-12-04T00:16:23;95468.13;;;2.00;100.00
65832;BME280;52593;42.648;23.332;2022-12-04T00:18:49;95465.69;;;1.97;100.00
65832;BME280;52593;42.648;23.332;2022-12-04T00:21:16;95475.50;;;2.08;100.00
65832;BME280;52593;42.648;23.332;2022-12-04T00:23:42;95472.97;;;2.06;100.00
65832;BME280;52593;42.648;23.332;2022-12-04T00:26:13;95477.34;;;2.31;100.00
65832;BME280;52593;42.648;23.332;2022-12-04T00:28:39;95470.88;;;2.36;100.00
65832;BME280;52593;42.648;23.332;2022-12-04T00:31:10;95467.69;;;2.19;100.00
65832;BME280;52593;42.648;23.332;2022-12-04T00:33:36;95466.31;;;2.13;100.00
65832;BME280;52593;42.648;23.332;2022-12-04T00:36:04;95474.19;;;2.26;100.00
65832;BME280;52593;42.648;23.332;2022-12-04T00:38:30;95477.59;;;2.16;100.00
65832;BME280;52593;42.648;23.332;2022-12-04T00:40:55;95473.13;;;2.29;100.00
65832;BME280;52593;42.648;23.332;2022-12-04T00:43:21;95477.69;;;2.14;100.00
65832;BME280;52593;42.648;23.332;2022-12-04T00:45:48;95468.75;;;2.41;100.00
65832;BME280;52593;42.648;23.332;2022-12-04T00:48:13;95473.97;;;2.29;100.00
65832;BME280;52593;42.648;23.332;2022-12-04T00:50:39;95476.88;;;2.13;100.00
65832;BME280;52593;42.648;23.332;2022-12-04T00:53:04;95477.38;;;2.19;100.00
65832;BME280;52593;42.648;23.332;2022-12-04T00:55:30;95473.63;;;2.10;100.00
65832;BME280;52593;42.648;23.332;2022-12-04T00:57:55;95474.28;;;2.25;100.00
65832;BME280;52593;42.648;23.332;2022-12-04T01:00:21;95476.59;;;2.29;100.00
65832;BME280;52593;42.648;23.332;2022-12-04T01:02:46;95471.44;;;2.28;100.00
65832;BME280;52593;42.648;23.332;2022-12-04T01:05:12;95467.34;;;2.48;100.00
65832;BME280;52593;42.648;23.332;2022-12-04T01:07:37;95468.00;;;2.52;99.18
65832;BME280;52593;42.648;23.332;2022-12-04T01:10:05;95473.50;;;2.48;99.03
65832;BME280;52593;42.648;23.332;2022-12-04T01:12:32;95468.06;;;2.26;98.98
65832;BME280;52593;42.648;23.332;2022-12-04T01:14:58;95466.69;;;2.20;100.00
65832;BME280;52593;42.648;23.332;2022-12-04T01:17:23;95470.31;;;2.06;100.00
65832;BME280;52593;42.648;23.332;2022-12-04T01:19:49;95467.56;;;2.08;100.00
65832;BME280;52593;42.648;23.332;2022-12-04T01:22:14;95465.38;;;2.14;100.00
65832;BME280;52593;42.648;23.332;2022-12-04T01:24:40;95463.72;;;2.01;100.00
65832;BME280;52593;42.648;23.332;2022-12-04T01:27:05;95463.50;;;1.91;100.00
65832;BME280;52593;42.648;23.332;2022-12-04T01:29:30;95456.22;;;1.82;100.00
65832;BME280;52593;42.648;23.332;2022-12-04T01:31:56;95451.38;;;1.75;100.00
65832;BME280;52593;42.648;23.332;2022-12-04T01:34:21;95465.41;;;1.89;100.00
65832;BME280;52593;42.648;23.332;2022-12-04T01:36:49;95460.66;;;1.81;100.00
65832;BME280;52593;42.648;23.332;2022-12-04T01:39:14;95470.09;;;1.59;100.00
65832;BME280;52593;42.648;23.332;2022-12-04T01:41:40;95475.75;;;1.66;100.00
65832;BME280;52593;42.648;23.332;2022-12-04T01:46:46;95465.09;;;1.68;100.00
65832;BME280;52593;42.648;23.332;2022-12-04T01:49:18;95462.28;;;1.58;100.00
65832;BME280;52593;42.648;23.332;2022-12-04T01:51:50;95460.03;;;1.65;100.00
65832;BME280;52593;42.648;23.332;2022-12-04T01:54:33;95451.28;;;1.77;100.00
65832;BME280;52593;42.648;23.332;2022-12-04T01:57:11;95456.56;;;1.64;100.00
65832;BME280;52593;42.648;23.332;2022-12-04T01:59:51;95454.84;;;1.89;100.00
65832;BME280;52593;42.648;23.332;2022-12-04T02:02:32;95451.88;;;1.81;100.00
65832;BME280;52593;42.648;23.332;2022-12-04T02:04:59;95449.97;;;1.95;100.00
65832;BME280;52593;42.648;23.332;2022-12-04T02:07:26;95450.22;;;1.80;100.00
65832;BME280;52593;42.648;23.332;2022-12-04T02:09:51;95448.72;;;1.88;100.00
65832;BME280;52593;42.648;23.332;2022-12-04T02:12:39;95452.53;;;1.84;100.00
65832;BME280;52593;42.648;23.332;2022-12-04T02:15:25;95443.75;;;1.84;100.00
65832;BME280;52593;42.648;23.332;2022-12-04T02:20:59;95441.97;;;1.84;100.00
65832;BME280;52593;42.648;23.332;2022-12-04T02:23:50;95445.47;;;1.59;100.00
65832;BME280;52593;42.648;23.332;2022-12-04T02:26:39;95445.16;;;1.64;100.00
65832;BME280;52593;42.648;23.332;2022-12-04T02:32:18;95439.22;;;1.86;100.00
65832;BME280;52593;42.648;23.332;2022-12-04T02:37:17;95435.75;;;1.72;100.00
65832;BME280;52593;42.648;23.332;2022-12-04T02:40:03;95435.69;;;1.61;100.00
65832;BME280;52593;42.648;23.332;2022-12-04T02:44:59;95431.44;;;1.84;100.00
65832;BME280;52593;42.648;23.332;2022-12-04T02:47:26;95432.47;;;1.82;100.00
65832;BME280;52593;42.648;23.332;2022-12-04T02:49:58;95430.66;;;1.95;100.00
65832;BME280;52593;42.648;23.332;2022-12-04T02:52:31;95438.91;;;1.90;100.00
65832;BME280;52593;42.648;23.332;2022-12-04T02:55:02;95429.38;;;2.01;100.00
65832;BME280;52593;42.648;23.332;2022-12-04T02:57:33;95435.50;;;1.88;100.00
65832;BME280;52593;42.648;23.332;2022-12-04T03:00:00;95437.19;;;2.02;100.00
65832;BME280;52593;42.648;23.332;2022-12-04T03:05:13;95441.94;;;1.97;100.00
65832;BME280;52593;42.648;23.332;2022-12-04T03:07:48;95440.44;;;2.06;100.00
65832;BME280;52593;42.648;23.332;2022-12-04T03:10:24;95428.31;;;2.03;100.00
65832;BME280;52593;42.648;23.332;2022-12-04T03:12:55;95423.34;;;1.99;100.00
65832;BME280;52593;42.648;23.332;2022-12-04T03:15:36;95419.66;;;2.01;100.00
65832;BME280;52593;42.648;23.332;2022-12-04T03:20:39;95431.81;;;1.91;100.00
65832;BME280;52593;42.648;23.332;2022-12-04T03:23:12;95430.94;;;2.03;100.00
65832;BME280;52593;42.648;23.332;2022-12-04T03:25:46;95421.31;;;2.15;100.00
65832;BME280;52593;42.648;23.332;2022-12-04T03:28:26;95424.13;;;2.25;100.00
65832;BME280;52593;42.648;23.332;2022-12-04T03:30:58;95417.72;;;2.40;100.00
65832;BME280;52593;42.648;23.332;2022-12-04T03:33:32;95420.69;;;2.60;100.00
65832;BME280;52593;42.648;23.332;2022-12-04T03:36:15;95410.09;;;2.84;100.00
65832;BME280;52593;42.648;23.332;2022-12-04T03:41:27;95419.75;;;2.96;100.00
65832;BME280;52593;42.648;23.332;2022-12-04T03:44:00;95422.06;;;3.12;100.00
65832;BME280;52593;42.648;23.332;2022-12-04T03:46:33;95425.34;;;3.16;100.00
65832;BME280;52593;42.648;23.332;2022-12-04T03:51:34;95420.47;;;3.34;100.00
65832;BME280;52593;42.648;23.332;2022-12-04T03:54:20;95413.47;;;3.44;100.00
65832;BME280;52593;42.648;23.332;2022-12-04T03:56:52;95411.31;;;3.38;100.00
65832;BME280;52593;42.648;23.332;2022-12-04T03:59:23;95409.41;;;3.40;100.00
65832;BME280;52593;42.648;23.332;2022-12-04T04:01:52;95410.34;;;3.50;99.98
65832;BME280;52593;42.648;23.332;2022-12-04T04:04:32;95403.28;;;3.51;99.34
65832;BME280;52593;42.648;23.332;2022-12-04T04:07:08;95413.16;;;3.60;98.29
65832;BME280;52593;42.648;23.332;2022-12-04T04:09:39;95399.06;;;3.71;97.81
65832;BME280;52593;42.648;23.332;2022-12-04T04:12:17;95409.16;;;3.66;97.47
65832;BME280;52593;42.648;23.332;2022-12-04T04:15:13;95409.63;;;3.60;97.80
65832;BME280;52593;42.648;23.332;2022-12-04T04:18:12;95398.69;;;3.64;97.12
65832;BME280;52593;42.648;23.332;2022-12-04T04:20:57;95414.34;;;3.67;97.07
65832;BME280;52593;42.648;23.332;2022-12-04T04:23:45;95410.13;;;3.65;96.83
65832;BME280;52593;42.648;23.332;2022-12-04T04:26:34;95404.84;;;3.65;96.95
65832;BME280;52593;42.648;23.332;2022-12-04T04:29:01;95406.28;;;3.69;96.56
65832;BME280;52593;42.648;23.332;2022-12-04T04:36:56;95419.63;;;3.67;96.70
65832;BME280;52593;42.648;23.332;2022-12-04T04:39:30;95411.19;;;3.73;96.50
65832;BME280;52593;42.648;23.332;2022-12-04T04:45:12;95409.41;;;3.74;96.33
65832;BME280;52593;42.648;23.332;2022-12-04T04:47:32;95418.19;;;3.74;96.04
65832;BME280;52593;42.648;23.332;2022-12-04T04:50:02;95411.56;;;3.69;96.21
65832;BME280;52593;42.648;23.332;2022-12-04T04:52:30;95419.63;;;3.67;96.51
65832;BME280;52593;42.648;23.332;2022-12-04T04:54:58;95421.56;;;3.65;96.28
65832;BME280;52593;42.648;23.332;2022-12-04T04:57:29;95422.28;;;3.67;95.94
65832;BME280;52593;42.648;23.332;2022-12-04T04:59:55;95425.03;;;3.66;95.72
65832;BME280;52593;42.648;23.332;2022-12-04T05:02:20;95430.22;;;3.67;95.80
65832;BME280;52593;42.648;23.332;2022-12-04T05:04:45;95433.09;;;3.64;96.00
65832;BME280;52593;42.648;23.332;2022-12-04T05:07:11;95428.28;;;3.58;96.36
65832;BME280;52593;42.648;23.332;2022-12-04T05:09:36;95430.34;;;3.66;96.12
65832;BME280;52593;42.648;23.332;2022-12-04T05:12:02;95438.28;;;3.66;95.98
65832;BME280;52593;42.648;23.332;2022-12-04T05:14:27;95434.19;;;3.62;96.09
65832;BME280;52593;42.648;23.332;2022-12-04T05:16:53;95452.09;;;3.58;96.64
65832;BME280;52593;42.648;23.332;2022-12-04T05:19:18;95440.69;;;3.57;97.08
65832;BME280;52593;42.648;23.332;2022-12-04T05:22:02;95438.50;;;3.63;97.02
65832;BME280;52593;42.648;23.332;2022-12-04T05:24:28;95460.66;;;3.62;97.39
65832;BME280;52593;42.648;23.332;2022-12-04T05:26:53;95456.81;;;3.66;97.51
65832;BME280;52593;42.648;23.332;2022-12-04T05:29:19;95454.28;;;3.64;97.42
65832;BME280;52593;42.648;23.332;2022-12-04T05:31:44;95453.44;;;3.52;97.83
65832;BME280;52593;42.648;23.332;2022-12-04T05:34:09;95461.38;;;3.52;98.12
65832;BME280;52593;42.648;23.332;2022-12-04T05:36:35;95462.56;;;3.60;97.90
65832;BME280;52593;42.648;23.332;2022-12-04T05:39:00;95463.91;;;3.54;98.02
65832;BME280;52593;42.648;23.332;2022-12-04T05:41:25;95457.50;;;3.45;99.06
65832;BME280;52593;42.648;23.332;2022-12-04T05:43:51;95463.78;;;3.67;98.27
65832;BME280;52593;42.648;23.332;2022-12-04T05:46:16;95465.59;;;3.66;97.22
65832;BME280;52593;42.648;23.332;2022-12-04T05:48:41;95465.59;;;3.66;97.31
65832;BME280;52593;42.648;23.332;2022-12-04T05:51:09;95472.31;;;3.12;97.91
65832;BME280;52593;42.648;23.332;2022-12-04T05:53:35;95473.22;;;2.89;98.91
65832;BME280;52593;42.648;23.332;2022-12-04T05:56:01;95472.88;;;2.93;99.11
65832;BME280;52593;42.648;23.332;2022-12-04T05:58:27;95478.03;;;2.95;99.44
65832;BME280;52593;42.648;23.332;2022-12-04T06:00:53;95470.72;;;2.98;98.59
65832;BME280;52593;42.648;23.332;2022-12-04T06:03:19;95477.81;;;2.98;98.21
65832;BME280;52593;42.648;23.332;2022-12-04T06:05:45;95480.19;;;2.90;98.74
65832;BME280;52593;42.648;23.332;2022-12-04T06:08:11;95473.53;;;2.84;98.80
65832;BME280;52593;42.648;23.332;2022-12-04T06:10:36;95472.72;;;2.59;99.58
65832;BME280;52593;42.648;23.332;2022-12-04T06:13:01;95462.97;;;2.60;100.00
65832;BME280;52593;42.648;23.332;2022-12-04T06:15:28;95468.72;;;2.78;99.97
65832;BME280;52593;42.648;23.332;2022-12-04T06:17:53;95474.25;;;2.62;100.00
65832;BME280;52593;42.648;23.332;2022-12-04T06:20:19;95479.50;;;2.75;99.76
65832;BME280;52593;42.648;23.332;2022-12-04T06:22:44;95479.09;;;2.92;99.24
65832;BME280;52593;42.648;23.332;2022-12-04T06:25:09;95488.22;;;2.88;98.06
65832;BME280;52593;42.648;23.332;2022-12-04T06:27:35;95482.88;;;2.77;98.88
65832;BME280;52593;42.648;23.332;2022-12-04T06:30:01;95482.38;;;2.96;98.91
65832;BME280;52593;42.648;23.332;2022-12-04T06:32:26;95482.16;;;2.99;98.28
65832;BME280;52593;42.648;23.332;2022-12-04T06:34:53;95482.28;;;3.09;97.62
65832;BME280;52593;42.648;23.332;2022-12-04T06:37:20;95480.06;;;2.91;98.15
65832;BME280;52593;42.648;23.332;2022-12-04T06:39:46;95476.00;;;2.98;97.93
65832;BME280;52593;42.648;23.332;2022-12-04T06:42:12;95490.41;;;2.94;97.55
65832;BME280;52593;42.648;23.332;2022-12-04T06:44:37;95480.88;;;3.16;99.81
65832;BME280;52593;42.648;23.332;2022-12-04T06:47:02;95488.03;;;3.38;99.81
65832;BME280;52593;42.648;23.332;2022-12-04T06:49:28;95497.84;;;3.60;99.45
65832;BME280;52593;42.648;23.332;2022-12-04T06:51:53;95494.00;;;3.75;98.44
65832;BME280;52593;42.648;23.332;2022-12-04T06:54:18;95489.44;;;3.78;98.12
65832;BME280;52593;42.648;23.332;2022-12-04T06:56:44;95492.19;;;3.87;98.04
65832;BME280;52593;42.648;23.332;2022-12-04T06:59:09;95487.88;;;3.86;97.69
65832;BME280;52593;42.648;23.332;2022-12-04T07:01:35;95480.53;;;3.90;97.78
65832;BME280;52593;42.648;23.332;2022-12-04T07:04:02;95484.13;;;3.89;98.05
65832;BME280;52593;42.648;23.332;2022-12-04T07:06:38;95476.09;;;4.02;97.37
65832;BME280;52593;42.648;23.332;2022-12-04T07:09:06;95483.78;;;4.05;97.26
65832;BME280;52593;42.648;23.332;2022-12-04T07:11:34;95483.31;;;4.11;96.28
65832;BME280;52593;42.648;23.332;2022-12-04T07:13:59;95475.13;;;4.14;96.18
65832;BME280;52593;42.648;23.332;2022-12-04T07:16:27;95485.22;;;4.20;95.41
65832;BME280;52593;42.648;23.332;2022-12-04T07:18:53;95480.63;;;4.22;95.31
65832;BME280;52593;42.648;23.332;2022-12-04T07:21:21;95476.19;;;4.23;95.63
65832;BME280;52593;42.648;23.332;2022-12-04T07:23:51;95477.88;;;4.24;95.47
65832;BME280;52593;42.648;23.332;2022-12-04T07:26:18;95483.88;;;4.37;95.17
65832;BME280;52593;42.648;23.332;2022-12-04T07:28:44;95488.81;;;4.42;94.77
65832;BME280;52593;42.648;23.332;2022-12-04T07:31:12;95477.97;;;4.45;94.45
65832;BME280;52593;42.648;23.332;2022-12-04T07:33:37;95469.41;;;4.53;94.18
65832;BME280;52593;42.648;23.332;2022-12-04T07:36:04;95475.66;;;4.63;93.50
65832;BME280;52593;42.648;23.332;2022-12-04T07:38:31;95478.31;;;4.63;93.29
65832;BME280;52593;42.648;23.332;2022-12-04T07:41:01;95482.34;;;4.78;92.90
65832;BME280;52593;42.648;23.332;2022-12-04T07:43:28;95484.88;;;4.80;92.46
65832;BME280;52593;42.648;23.332;2022-12-04T07:45:53;95488.97;;;4.84;92.22
65832;BME280;52593;42.648;23.332;2022-12-04T07:48:19;95483.28;;;4.89;91.69
65832;BME280;52593;42.648;23.332;2022-12-04T07:50:44;95485.50;;;5.05;91.03
65832;BME280;52593;42.648;23.332;2022-12-04T07:53:10;95475.59;;;5.07;90.57
65832;BME280;52593;42.648;23.332;2022-12-04T07:55:35;95479.44;;;5.14;89.62
65832;BME280;52593;42.648;23.332;2022-12-04T07:58:01;95468.72;;;5.15;88.85
65832;BME280;52593;42.648;23.332;2022-12-04T08:00:26;95471.94;;;5.19;87.92
65832;BME280;52593;42.648;23.332;2022-12-04T08:02:52;95479.16;;;5.28;87.76
65832;BME280;52593;42.648;23.332;2022-12-04T08:05:17;95476.25;;;5.31;87.97
65832;BME280;52593;42.648;23.332;2022-12-04T08:07:43;95485.03;;;5.32;87.51
65832;BME280;52593;42.648;23.332;2022-12-04T08:10:09;95487.56;;;5.33;87.22
65832;BME280;52593;42.648;23.332;2022-12-04T08:12:35;95490.63;;;5.50;86.90
65832;BME280;52593;42.648;23.332;2022-12-04T08:15:00;95487.31;;;5.36;86.47
65832;BME280;52593;42.648;23.332;2022-12-04T08:17:26;95476.88;;;5.45;85.70
65832;BME280;52593;42.648;23.332;2022-12-04T08:19:51;95471.69;;;5.43;85.66
65832;BME280;52593;42.648;23.332;2022-12-04T08:22:17;95464.00;;;5.61;84.96
65832;BME280;52593;42.648;23.332;2022-12-04T08:24:42;95469.56;;;5.58;84.29
65832;BME280;52593;42.648;23.332;2022-12-04T08:27:08;95476.31;;;5.62;83.74
65832;BME280;52593;42.648;23.332;2022-12-04T08:29:33;95470.88;;;5.64;83.37
65832;BME280;52593;42.648;23.332;2022-12-04T08:31:58;95473.97;;;5.69;82.79
65832;BME280;52593;42.648;23.332;2022-12-04T08:34:24;95471.44;;;5.67;82.21
65832;BME280;52593;42.648;23.332;2022-12-04T08:36:49;95468.59;;;5.59;82.23
65832;BME280;52593;42.648;23.332;2022-12-04T08:39:15;95480.06;;;5.81;81.91
65832;BME280;52593;42.648;23.332;2022-12-04T08:41:40;95474.50;;;5.94;80.98
65832;BME280;52593;42.648;23.332;2022-12-04T08:44:05;95479.31;;;5.79;81.09
65832;BME280;52593;42.648;23.332;2022-12-04T08:46:31;95475.59;;;5.91;80.64
65832;BME280;52593;42.648;23.332;2022-12-04T08:48:57;95469.06;;;5.95;79.94
65832;BME280;52593;42.648;23.332;2022-12-04T08:51:27;95479.19;;;6.01;80.56
65832;BME280;52593;42.648;23.332;2022-12-04T08:53:54;95473.34;;;6.07;80.26
65832;BME280;52593;42.648;23.332;2022-12-04T08:56:20;95480.09;;;6.12;79.49
65832;BME280;52593;42.648;23.332;2022-12-04T08:58:46;95470.16;;;6.14;79.72
65832;BME280;52593;42.648;23.332;2022-12-04T09:01:12;95475.81;;;6.20;80.22
65832;BME280;52593;42.648;23.332;2022-12-04T09:03:39;95467.69;;;6.22;79.76
65832;BME280;52593;42.648;23.332;2022-12-04T09:06:07;95459.72;;;6.22;80.17
65832;BME280;52593;42.648;23.332;2022-12-04T09:08:33;95454.28;;;6.33;79.63
65832;BME280;52593;42.648;23.332;2022-12-04T09:11:20;95453.88;;;6.38;79.29
65832;BME280;52593;42.648;23.332;2022-12-04T09:13:46;95453.00;;;6.28;79.55
65832;BME280;52593;42.648;23.332;2022-12-04T09:16:14;95459.47;;;6.35;79.62
65832;BME280;52593;42.648;23.332;2022-12-04T09:18:40;95459.22;;;6.48;78.79
65832;BME280;52593;42.648;23.332;2022-12-04T09:21:09;95445.69;;;6.60;78.13
65832;BME280;52593;42.648;23.332;2022-12-04T09:23:36;95442.47;;;6.67;77.69
65832;BME280;52593;42.648;23.332;2022-12-04T09:26:03;95436.75;;;6.62;78.04
65832;BME280;52593;42.648;23.332;2022-12-04T09:28:29;95434.59;;;6.46;78.56
65832;BME280;52593;42.648;23.332;2022-12-04T09:31:02;95427.72;;;6.33;79.04
65832;BME280;52593;42.648;23.332;2022-12-04T09:33:28;95429.66;;;6.31;79.64
65832;BME280;52593;42.648;23.332;2022-12-04T09:35:57;95428.69;;;6.32;79.95
65832;BME280;52593;42.648;23.332;2022-12-04T09:38:22;95432.63;;;6.38;79.75
65832;BME280;52593;42.648;23.332;2022-12-04T09:46:14;95419.34;;;6.48;80.35
65832;BME280;52593;42.648;23.332;2022-12-04T09:48:42;95424.72;;;6.77;79.72
65832;BME280;52593;42.648;23.332;2022-12-04T09:51:10;95417.16;;;7.11;77.43
65832;BME280;52593;42.648;23.332;2022-12-04T09:53:53;95410.53;;;6.37;79.79
65832;BME280;52593;42.648;23.332;2022-12-04T09:56:22;95405.78;;;6.51;80.79
65832;BME280;52593;42.648;23.332;2022-12-04T09:58:54;95410.09;;;6.42;80.32
65832;BME280;52593;42.648;23.332;2022-12-04T10:01:24;95400.72;;;6.38;81.16
65832;BME280;52593;42.648;23.332;2022-12-04T10:03:53;95390.63;;;6.22;82.00
65832;BME280;52593;42.648;23.332;2022-12-04T10:06:23;95389.41;;;6.46;80.71
65832;BME280;52593;42.648;23.332;2022-12-04T10:09:16;95392.31;;;6.33;81.85
65832;BME280;52593;42.648;23.332;2022-12-04T10:21:07;95376.53;;;6.70;80.62
65832;BME280;52593;42.648;23.332;2022-12-04T10:25:58;95355.13;;;6.91;79.52
65832;BME280;52593;42.648;23.332;2022-12-04T10:28:33;95350.69;;;7.49;77.74
65832;BME280;52593;42.648;23.332;2022-12-04T10:31:02;95353.53;;;7.28;76.84
65832;BME280;52593;42.648;23.332;2022-12-04T10:33:50;95360.16;;;6.94;78.52
65832;BME280;52593;42.648;23.332;2022-12-04T10:36:19;95350.22;;;6.87;79.55
65832;BME280;52593;42.648;23.332;2022-12-04T10:38:56;95334.94;;;7.08;78.89
65832;BME280;52593;42.648;23.332;2022-12-04T10:44:17;95345.59;;;6.99;78.95
65832;BME280;52593;42.648;23.332;2022-12-04T10:46:43;95345.31;;;7.02;78.99
65832;BME280;52593;42.648;23.332;2022-12-04T10:49:22;95335.09;;;6.87;79.17
65832;BME280;52593;42.648;23.332;2022-12-04T10:51:49;95342.66;;;6.92;78.95
65832;BME280;52593;42.648;23.332;2022-12-04T10:54:22;95342.81;;;7.00;78.60
65832;BME280;52593;42.648;23.332;2022-12-04T10:56:51;95346.72;;;6.76;78.63
65832;BME280;52593;42.648;23.332;2022-12-04T10:59:17;95344.19;;;6.94;78.80
65832;BME280;52593;42.648;23.332;2022-12-04T11:01:43;95350.50;;;7.03;77.49
65832;BME280;52593;42.648;23.332;2022-12-04T11:04:22;95338.28;;;7.20;77.92
65832;BME280;52593;42.648;23.332;2022-12-04T11:06:51;95335.88;;;7.27;76.72
65832;BME280;52593;42.648;23.332;2022-12-04T11:09:24;95331.47;;;7.45;76.37
65832;BME280;52593;42.648;23.332;2022-12-04T11:11:50;95335.78;;;6.99;77.79
65832;BME280;52593;42.648;23.332;2022-12-04T11:14:18;95321.34;;;7.11;77.68
65832;BME280;52593;42.648;23.332;2022-12-04T11:16:46;95331.97;;;7.21;77.39
65832;BME280;52593;42.648;23.332;2022-12-04T11:19:30;95330.16;;;7.22;77.64
65832;BME280;52593;42.648;23.332;2022-12-04T11:22:02;95331.31;;;7.09;77.45
65832;BME280;52593;42.648;23.332;2022-12-04T11:24:32;95348.41;;;6.87;78.37
65832;BME280;52593;42.648;23.332;2022-12-04T11:26:58;95339.59;;;6.87;78.37
65832;BME280;52593;42.648;23.332;2022-12-04T11:29:32;95345.63;;;6.79;78.47
65832;BME280;52593;42.648;23.332;2022-12-04T11:32:00;95337.88;;;7.05;77.35
65832;BME280;52593;42.648;23.332;2022-12-04T11:34:38;95331.28;;;7.19;77.20
65832;BME280;52593;42.648;23.332;2022-12-04T11:37:05;95329.25;;;7.50;75.94
65832;BME280;52593;42.648;23.332;2022-12-04T11:39:43;95324.88;;;7.49;75.51
65832;BME280;52593;42.648;23.332;2022-12-04T11:44:38;95326.31;;;7.81;74.92
65832;BME280;52593;42.648;23.332;2022-12-04T11:47:13;95333.50;;;7.34;75.20
65832;BME280;52593;42.648;23.332;2022-12-04T11:49:41;95341.16;;;7.46;76.12
65832;BME280;52593;42.648;23.332;2022-12-04T11:57:30;95338.31;;;7.58;75.38
65832;BME280;52593;42.648;23.332;2022-12-04T12:00:12;95335.88;;;7.74;74.96
65832;BME280;52593;42.648;23.332;2022-12-04T12:13:57;95336.25;;;11.45;60.41
65832;BME280;52593;42.648;23.332;2022-12-04T12:16:43;95332.69;;;9.77;65.16
65832;BME280;52593;42.648;23.332;2022-12-04T12:24:55;95330.41;;;9.82;65.10
65832;BME280;52593;42.648;23.332;2022-12-04T12:30:14;95351.47;;;7.97;71.19
65832;BME280;52593;42.648;23.332;2022-12-04T12:33:08;95363.16;;;7.48;74.44
65832;BME280;52593;42.648;23.332;2022-12-04T12:38:32;95343.34;;;7.98;72.24
65832;BME280;52593;42.648;23.332;2022-12-04T12:43:37;95350.69;;;7.49;74.09
65832;BME280;52593;42.648;23.332;2022-12-04T12:51:35;95353.72;;;6.97;75.83
65832;BME280;52593;42.648;23.332;2022-12-04T12:54:32;95346.31;;;6.62;77.60
65832;BME280;52593;42.648;23.332;2022-12-04T12:57:26;95345.06;;;6.56;78.40
65832;BME280;52593;42.648;23.332;2022-12-04T13:00:17;95350.66;;;6.82;77.28
65832;BME280;52593;42.648;23.332;2022-12-04T13:02:46;95340.81;;;7.12;76.78
65832;BME280;52593;42.648;23.332;2022-12-04T13:05:16;95334.75;;;7.20;74.90
65832;BME280;52593;42.648;23.332;2022-12-04T13:10:36;95346.44;;;6.99;75.82
65832;BME280;52593;42.648;23.332;2022-12-04T13:13:13;95349.38;;;6.76;76.04
65832;BME280;52593;42.648;23.332;2022-12-04T13:15:43;95344.19;;;7.04;75.54
65832;BME280;52593;42.648;23.332;2022-12-04T13:18:28;95345.06;;;6.75;75.98
65832;BME280;52593;42.648;23.332;2022-12-04T13:20:57;95330.50;;;6.70;76.59
65832;BME280;52593;42.648;23.332;2022-12-04T13:23:39;95341.00;;;6.71;75.99
65832;BME280;52593;42.648;23.332;2022-12-04T13:26:23;95347.28;;;6.90;75.40
65832;BME280;52593;42.648;23.332;2022-12-04T13:29:02;95331.47;;;6.88;75.19
65832;BME280;52593;42.648;23.332;2022-12-04T13:40:14;95337.06;;;6.27;76.37
65832;BME280;52593;42.648;23.332;2022-12-04T13:42:47;95335.91;;;6.19;76.78
65832;BME280;52593;42.648;23.332;2022-12-04T13:45:25;95343.06;;;6.19;77.28
65832;BME280;52593;42.648;23.332;2022-12-04T13:47:56;95345.28;;;6.14;77.48
65832;BME280;52593;42.648;23.332;2022-12-04T13:50:33;95349.28;;;5.98;77.45
65832;BME280;52593;42.648;23.332;2022-12-04T13:52:59;95342.88;;;6.11;76.75
65832;BME280;52593;42.648;23.332;2022-12-04T14:00:36;95354.00;;;5.95;77.84
65832;BME280;52593;42.648;23.332;2022-12-04T14:03:05;95351.28;;;5.75;78.57
65832;BME280;52593;42.648;23.332;2022-12-04T14:05:41;95351.84;;;5.48;80.09
65832;BME280;52593;42.648;23.332;2022-12-04T14:08:28;95349.84;;;5.61;80.28
65832;BME280;52593;42.648;23.332;2022-12-04T14:11:16;95349.22;;;5.48;80.33
65832;BME280;52593;42.648;23.332;2022-12-04T14:13:53;95348.06;;;5.71;79.80
65832;BME280;52593;42.648;23.332;2022-12-04T14:16:37;95353.44;;;5.60;79.91
65832;BME280;52593;42.648;23.332;2022-12-04T14:19:04;95344.53;;;5.61;80.45
65832;BME280;52593;42.648;23.332;2022-12-04T14:21:39;95348.91;;;5.41;81.60
65832;BME280;52593;42.648;23.332;2022-12-04T14:24:15;95353.00;;;5.24;83.13
65832;BME280;52593;42.648;23.332;2022-12-04T14:26:48;95356.50;;;5.25;82.90
65832;BME280;52593;42.648;23.332;2022-12-04T14:31:54;95360.44;;;5.09;83.62
65832;BME280;52593;42.648;23.332;2022-12-04T14:36:49;95356.63;;;5.02;83.52
65832;BME280;52593;42.648;23.332;2022-12-04T14:39:32;95353.28;;;5.21;83.20
65832;BME280;52593;42.648;23.332;2022-12-04T14:44:44;95360.97;;;5.03;83.58
65832;BME280;52593;42.648;23.332;2022-12-04T14:58:15;95365.84;;;4.98;84.93
65832;BME280;52593;42.648;23.332;2022-12-04T15:00:56;95377.16;;;5.00;84.73
65832;BME280;52593;42.648;23.332;2022-12-04T15:03:23;95386.00;;;4.89;85.39
65832;BME280;52593;42.648;23.332;2022-12-04T15:05:49;95375.97;;;4.93;85.75
65832;BME280;52593;42.648;23.332;2022-12-04T15:08:16;95371.69;;;4.80;85.74
65832;BME280;52593;42.648;23.332;2022-12-04T15:10:48;95373.19;;;4.73;85.76
65832;BME280;52593;42.648;23.332;2022-12-04T15:13:34;95374.47;;;4.79;85.90
65832;BME280;52593;42.648;23.332;2022-12-04T15:18:40;95381.34;;;4.81;85.74
65832;BME280;52593;42.648;23.332;2022-12-04T15:21:16;95372.94;;;4.76;86.22
65832;BME280;52593;42.648;23.332;2022-12-04T15:23:42;95377.19;;;4.68;86.12